Cruise inventory

Prince Madog ISIS56 (J5)

Cruise plan

Cruise Info. 
Ship name (ship code)Prince Madog (74PD)
Cruise identifierISIS56 (J5)
Cruise period1987-06-29 — 1987-07-03
StatusCompleted
ObjectivesSurvey cruise contributing to research directed toward an understanding of how the physics of the Irish Sea and surrounding regions (Celtic Sea, St, George's Channel, North Channel and Clyde Sea) determined biogeochemical processes and sediment transport.
ProjectInterdisciplinary Study of the Irish Sea
Ocean/sea areas 
GeneralIrish Sea and St. George's Channel
Measurements 
Physical oceanography 
CTD stationsQuantity: number of stations = 42
Data held at BODC 
Series/Profiles 
42  CTD/STD cast
Transmittance and attenuance of the water column
Electrical conductivity of the water column
Vertical spatial coordinates
Salinity of the water column
Temperature of the water column
Transmittance and attenuance of the water column
Electrical conductivity of the water column
Vertical spatial coordinates
Salinity of the water column
Temperature of the water column

BODC idDate/TimeLocationDoc.
2991961987-06-29 15:06 53° 24' 27" N  4° 40' 46" W  View metadata report for BODC series reference number 299196
2992031987-06-29 16:36 53° 32' 26" N  4° 49' 40" W  View metadata report for BODC series reference number 299203
2992151987-06-30 00:05 53° 41' 34" N  5° 7' 36" W  View metadata report for BODC series reference number 299215
2992271987-06-29 11:05 53° 25' 59" N  4° 10' 0" W  View metadata report for BODC series reference number 299227
2992391987-06-29 13:06 53° 28' 38" N  4° 22' 26" W  View metadata report for BODC series reference number 299239
2992401987-06-30 04:26 53° 43' 32" N  5° 36' 51" W  View metadata report for BODC series reference number 299240
2992521987-06-30 06:26 53° 33' 18" N  5° 18' 43" W  View metadata report for BODC series reference number 299252
2992641987-06-30 08:30 53° 23' 27" N  5° 0' 37" W  View metadata report for BODC series reference number 299264
2992761987-06-30 10:56 53° 14' 13" N  4° 45' 0" W  View metadata report for BODC series reference number 299276
2992881987-06-30 12:52 53° 6' 38" N  4° 54' 33" W  View metadata report for BODC series reference number 299288
2993071987-06-30 14:45 53° 16' 24" N  5° 11' 49" W  View metadata report for BODC series reference number 299307
2993191987-06-30 17:01 53° 26' 18" N  5° 30' 3" W  View metadata report for BODC series reference number 299319
2993201987-06-30 18:35 53° 32' 21" N  5° 40' 58" W  View metadata report for BODC series reference number 299320
2993321987-06-30 20:44 53° 43' 34" N  5° 22' 55" W  View metadata report for BODC series reference number 299332
2993441987-06-30 22:28 53° 53' 35" N  5° 6' 33" W  View metadata report for BODC series reference number 299344
2993561987-06-30 23:40 53° 47' 38" N  4° 56' 50" W  View metadata report for BODC series reference number 299356
2993681987-07-01 00:55 53° 41' 41" N  4° 45' 31" W  View metadata report for BODC series reference number 299368
2993811987-07-01 02:20 53° 34' 37" N  4° 32' 40" W  View metadata report for BODC series reference number 299381
2993931987-07-01 03:57 53° 32' 58" N  4° 14' 55" W  View metadata report for BODC series reference number 299393
2994001987-07-01 06:19 53° 26' 54" N  3° 51' 34" W  View metadata report for BODC series reference number 299400
2994121987-07-01 07:53 53° 34' 41" N  4° 6' 10" W  View metadata report for BODC series reference number 299412
2994241987-07-01 09:33 53° 42' 15" N  4° 20' 35" W  View metadata report for BODC series reference number 299424
2994361987-07-01 11:40 53° 49' 50" N  4° 35' 23" W  View metadata report for BODC series reference number 299436
2995891987-07-02 09:16 54° 3' 16" N  3° 48' 21" W  View metadata report for BODC series reference number 299589
2995901987-07-02 11:04 53° 53' 18" N  3° 31' 25" W  View metadata report for BODC series reference number 299590
2996081987-07-02 12:43 54° 4' 51" N  3° 34' 53" W  View metadata report for BODC series reference number 299608
2996211987-07-02 14:10 54° 13' 56" N  3° 39' 16" W  View metadata report for BODC series reference number 299621
2996331987-07-02 15:08 54° 19' 49" N  3° 41' 22" W  View metadata report for BODC series reference number 299633
2996451987-07-02 17:00 54° 27' 52" N  3° 43' 43" W  View metadata report for BODC series reference number 299645
2996571987-07-02 18:50 54° 18' 41" N  3° 55' 20" W  View metadata report for BODC series reference number 299657
2995411987-07-02 02:27 53° 51' 20" N  3° 51' 33" W  View metadata report for BODC series reference number 299541
2995531987-07-02 03:15 53° 58' 51" N  4° 5' 32" W  View metadata report for BODC series reference number 299553
2995651987-07-02 05:45 54° 6' 31" N  4° 19' 59" W  View metadata report for BODC series reference number 299565
2995771987-07-02 07:21 54° 11' 15" N  4° 3' 37" W  View metadata report for BODC series reference number 299577
2994481987-07-01 13:30 53° 57' 52" N  4° 48' 47" W  View metadata report for BODC series reference number 299448
2994611987-07-01 14:59 54° 1' 42" N  4° 33' 36" W  View metadata report for BODC series reference number 299461
2994731987-07-01 16:42 53° 53' 43" N  4° 19' 7" W  View metadata report for BODC series reference number 299473
2994851987-07-01 18:28 53° 45' 43" N  4° 4' 46" W  View metadata report for BODC series reference number 299485
2994971987-07-01 20:12 53° 37' 47" N  3° 48' 32" W  View metadata report for BODC series reference number 299497
2995041987-07-01 21:51 53° 29' 48" N  3° 34' 32" W  View metadata report for BODC series reference number 299504
2995161987-07-01 23:05 53° 36' 20" N  3° 23' 19" W  View metadata report for BODC series reference number 299516
2995281987-07-02 00:15 53° 43' 52" N  3° 37' 21" W  View metadata report for BODC series reference number 299528